Ionia, MI

7:13 AM EDT on September 25, 2017 (GMT -0400)
Ionia

Weather History for KY70 - April, 2013

Change the Weather History Date:

Wednesday, April 10, 2013

  Actual Average (KGRR) Record (KGRR)
Temperature  
Mean Temperature 38 °F -  
Max Temperature 40 °F 52 °F 85 °F (2011)
Min Temperature 36 °F 30 °F 15 °F (1989)
Degree Days  
Heating Degree Days 27    
Moisture  
Dew Point 38 °F    
Average Humidity 98    
Maximum Humidity 100    
Minimum Humidity 89    
Precipitation  
Precipitation 0.25 in - - ()
Sea Level Pressure  
Sea Level Pressure 29.96 in    
Wind  
Wind Speed 13 mph (ENE)    
Max Wind Speed 21 mph    
Max Gust Speed 29 mph    
Visibility 8 miles    
Events Rain    
Averages and records for this station are not official NWS values.
T = Trace of Precipitation, MM = Missing Value Source: NWS Daily Summary

Daily Weather History Graph

Daily Weather History Graph

Search for Another Location

Airport or City:

Trip Planner

Search our weather history database for the weather conditions in past years. The results will help you decide how hot, cold, wet, or windy it might be!

Date:

Astronomy

Apr. 10, 2013 Rise Set
Actual Time 7:06 AM EDT 8:17 PM EDT
Civil Twilight 6:37 AM EDT 8:46 PM EDT
Nautical Twilight 6:02 AM EDT 9:21 PM EDT
Astronomical Twilight 5:25 AM EDT 9:58 PM EDT
Moon 7:01 AM EDT (4/10) 8:53 PM EDT (4/10)
Length of Visible Light 14h 09m
Length of Day
13h 10m
New Moon, 0% of the Moon is Illuminated
Apr 10
New Moon
Apr 18
First Quarter
Apr 25
Full
May 2
Last Quarter
May 9
New

Hourly Weather History & Observations

Time (EDT) Temp. Windchill Dew Point Humidity Pressure Visibility Wind Dir Wind Speed Gust Speed Precip Events Conditions
12:14 AM 39.4 °F 31.8 °F 39.2 °F 99% 30.00 in 5.0 mi ENE 12.7 mph 18.4 mph 0.02 in Rain Rain
12:34 AM 39.2 °F 32.0 °F 39.2 °F 100% 30.00 in 4.0 mi East 11.5 mph - 0.07 in Rain Rain
12:54 AM 39.2 °F 33.0 °F 39.2 °F 100% 30.00 in 10.0 mi ENE 9.2 mph - 0.07 in Rain Light Rain
1:14 AM 39.2 °F 33.0 °F 39.2 °F 100% 30.00 in 10.0 mi ENE 9.2 mph - N/A   Overcast
1:34 AM 39.2 °F 32.5 °F 39.2 °F 100% 30.00 in 10.0 mi ENE 10.4 mph - N/A Rain Rain
1:52 AM 39.2 °F 31.6 °F 39.2 °F 100% 29.99 in 10.0 mi ENE 12.7 mph 16.1 mph N/A   Drizzle
2:14 AM 39.2 °F 32.0 °F 39.2 °F 100% 29.98 in 10.0 mi ENE 11.5 mph 18.4 mph N/A   Light Drizzle
2:34 AM 38.8 °F 30.8 °F 38.8 °F 100% 29.95 in 10.0 mi ENE 13.8 mph - N/A   Overcast
2:54 AM 38.8 °F 32.6 °F 38.8 °F 100% 29.96 in 7.0 mi ENE 9.2 mph - N/A   Overcast
3:14 AM 38.8 °F 32.1 °F 38.8 °F 100% 29.95 in 7.0 mi ENE 10.4 mph 18.4 mph N/A Rain Rain
3:34 AM 38.7 °F 30.1 °F 38.7 °F 100% 29.94 in 5.0 mi ENE 15.0 mph 18.4 mph N/A Rain Light Rain
3:54 AM 38.5 °F 30.3 °F 38.5 °F 100% 29.95 in 5.0 mi ENE 13.8 mph 17.3 mph N/A   Overcast
4:11 AM 38.3 °F 29.7 °F 38.3 °F 100% 29.93 in 7.0 mi ENE 15.0 mph 19.6 mph N/A   Overcast
4:34 AM 38.3 °F 30.1 °F 38.3 °F 100% 29.95 in 5.0 mi ENE 13.8 mph - N/A   Overcast
8:02 AM 37.8 °F 28.6 °F 37.6 °F 99% 29.96 in 5.0 mi ENE 16.1 mph - N/A Rain Light Rain
8:14 AM 37.8 °F 28.6 °F 37.6 °F 99% 29.94 in 5.0 mi East 16.1 mph 24.2 mph N/A Rain Light Rain
8:34 AM 37.9 °F 28.9 °F 37.8 °F 99% 29.94 in 5.0 mi East 16.1 mph - N/A Rain Light Rain
8:54 AM 37.9 °F 30.0 °F 37.9 °F 100% 29.93 in 3.0 mi East 12.7 mph 19.6 mph N/A   Overcast
9:14 AM 38.3 °F 31.4 °F 38.3 °F 100% 29.93 in 2.5 mi East 10.4 mph 18.4 mph N/A   Overcast
9:34 AM 38.5 °F 30.3 °F 38.5 °F 100% 29.93 in 2.5 mi East 13.8 mph - N/A   Overcast
9:54 AM 38.5 °F 30.7 °F 38.5 °F 100% 29.95 in 1.8 mi NNE 12.7 mph - 0.05 in Rain Light Rain
10:14 AM 38.5 °F 31.1 °F 38.5 °F 100% 29.95 in 4.0 mi NNE 11.5 mph 17.3 mph N/A   Drizzle
10:34 AM 38.7 °F 31.4 °F 38.7 °F 100% 29.90 in 4.0 mi East 11.5 mph 20.7 mph N/A   Overcast
10:54 AM 38.8 °F 31.2 °F 38.8 °F 100% 30.01 in 1.0 mi North 12.7 mph - 0.08 in   Unknown
11:14 AM 38.5 °F 29.6 °F 38.5 °F 100% 29.97 in 2.0 mi NE 16.1 mph 21.9 mph 0.04 in Rain Heavy Rain
11:34 AM 38.5 °F 29.6 °F 38.5 °F 100% 29.89 in 10.0 mi East 16.1 mph 27.6 mph 0.04 in   Overcast
11:54 AM 38.7 °F 29.5 °F 38.7 °F 100% 29.86 in 10.0 mi East 17.3 mph 26.5 mph 0.04 in   Overcast
12:14 PM 39.2 °F 31.6 °F 39.2 °F 100% 29.94 in 10.0 mi East 12.7 mph - N/A   Overcast
12:34 PM 39.2 °F 30.5 °F 39.2 °F 100% 29.91 in 10.0 mi ENE 16.1 mph - N/A   Overcast
1:14 PM 39.6 °F 32.5 °F 39.4 °F 99% 29.95 in 5.0 mi ENE 11.5 mph - 0.01 in Rain Light Rain
1:34 PM 40.1 °F 32.7 °F 40.1 °F 100% 29.94 in 10.0 mi NNE 12.7 mph - 0.01 in   Light Drizzle
2:14 PM 39.2 °F 29.6 °F 38.7 °F 98% 29.94 in 10.0 mi NNE 19.6 mph 27.6 mph N/A   Overcast
2:34 PM 39.2 °F 31.2 °F 38.7 °F 98% 29.97 in 10.0 mi NE 13.8 mph 19.6 mph N/A   Overcast
2:54 PM 39.2 °F 31.2 °F 38.7 °F 98% 29.97 in 10.0 mi NE 13.8 mph 21.9 mph N/A   Overcast
3:14 PM 39.2 °F 29.8 °F 38.7 °F 98% 29.94 in 10.0 mi NE 18.4 mph - N/A   Overcast
3:34 PM 39.2 °F 30.5 °F 38.8 °F 99% 29.93 in 10.0 mi ENE 16.1 mph 25.3 mph N/A   Overcast
3:54 PM 39.2 °F 31.2 °F 38.8 °F 99% 29.96 in 10.0 mi NE 13.8 mph 26.5 mph N/A   Overcast
4:14 PM 39.4 °F 30.4 °F 39.0 °F 99% 29.97 in 10.0 mi ENE 17.3 mph 20.7 mph N/A   Overcast
4:34 PM 39.6 °F 31.0 °F 38.7 °F 97% 29.97 in 10.0 mi ENE 16.1 mph 21.9 mph N/A   Overcast
4:54 PM 39.6 °F 33.0 °F 38.5 °F 96% 30.01 in 10.0 mi NE 10.4 mph - N/A   Overcast
5:14 PM 39.6 °F 32.1 °F 38.7 °F 97% 30.00 in 5.0 mi ENE 12.7 mph - N/A   Overcast
5:34 PM 39.4 °F 30.4 °F 38.8 °F 98% 29.98 in 7.0 mi NE 17.3 mph 21.9 mph N/A   Overcast
5:54 PM 39.4 °F 29.5 °F 38.8 °F 98% 29.96 in 10.0 mi NE 20.7 mph 25.3 mph N/A   Overcast
6:14 PM 39.4 °F 30.1 °F 38.7 °F 97% 29.94 in 10.0 mi ENE 18.4 mph 28.8 mph N/A   Overcast
6:34 PM 39.2 °F 30.8 °F 37.9 °F 95% 29.96 in 10.0 mi ENE 15.0 mph 28.8 mph N/A   Overcast
6:54 PM 39.2 °F 30.5 °F 37.6 °F 94% 29.95 in 10.0 mi ENE 16.1 mph 24.2 mph N/A   Overcast
7:14 PM 39.4 °F 32.3 °F 37.4 °F 93% 29.99 in 10.0 mi NE 11.5 mph 17.3 mph N/A   Overcast
7:34 PM 39.0 °F 30.3 °F 36.9 °F 92% 29.97 in 10.0 mi ENE 16.1 mph 23.0 mph N/A   Overcast
7:54 PM 38.5 °F 31.1 °F 36.7 °F 93% 29.97 in 10.0 mi NE 11.5 mph - N/A   Overcast
8:14 PM 38.3 °F 29.7 °F 36.5 °F 93% 29.97 in 10.0 mi ENE 15.0 mph - N/A   Overcast
8:34 PM 37.9 °F 28.2 °F 36.0 °F 93% 29.97 in 10.0 mi East 18.4 mph 24.2 mph N/A   Overcast
8:54 PM 37.8 °F 29.4 °F 36.0 °F 93% 29.97 in 10.0 mi ENE 13.8 mph 21.9 mph N/A   Overcast
9:14 PM 37.4 °F 28.5 °F 35.8 °F 94% 29.95 in 10.0 mi ENE 15.0 mph 24.2 mph N/A   Overcast
9:34 PM 37.4 °F 28.2 °F 35.6 °F 93% 29.97 in 10.0 mi NE 16.1 mph 21.9 mph N/A   Overcast
9:54 PM 36.9 °F 27.8 °F 35.6 °F 95% 29.96 in 10.0 mi NE 15.0 mph 21.9 mph N/A   Overcast
10:14 PM 36.7 °F 26.9 °F 35.2 °F 95% 29.95 in 10.0 mi ENE 17.3 mph 25.3 mph N/A   Overcast
10:54 PM 36.7 °F 28.0 °F 34.9 °F 93% 29.97 in 10.0 mi ENE 13.8 mph 21.9 mph N/A   Overcast
11:14 PM 36.7 °F 27.2 °F 34.3 °F 91% 29.97 in 10.0 mi ENE 16.1 mph - N/A   Overcast
11:34 PM 36.5 °F 28.2 °F 34.0 °F 91% 29.96 in 10.0 mi ENE 12.7 mph 24.2 mph N/A   Overcast
11:54 PM 36.7 °F 28.9 °F 33.8 °F 89% 29.98 in 10.0 mi ENE 11.5 mph 20.7 mph N/A   Overcast